Time;durP1;ratioP1;P1;durP2;ratioP2;P2;SDS_P1;SDS_P2;PMS_P1;PMS_P2;Temp;Humidity;BMP_temperature;BMP_pressure;BME280_temperature;BME280_humidity;BME280_pressure;Samples;Min_cycle;Max_cycle;Signal;HPM_P1;HPM_P2
2022/04/13 00:01:58;;;;;;;7.23;5.93;;;;;;;;;;4996020;28;20408;-88
2022/04/13 00:04:40;;;;;;;8.87;6.00;;;;;;;;;;4978927;28;20512;-87
2022/04/13 00:07:06;;;;;;;3.93;3.73;;;;;;;;;;5006085;28;20453;-88
2022/04/13 00:09:35;;;;;;;4.37;4.07;;;;;;;;;;4987360;28;20429;-87
2022/04/13 00:12:03;;;;;;;4.33;4.13;;;;;;;;;;4995393;28;20428;-88
2022/04/13 00:14:32;;;;;;;4.07;3.77;;;;;;;;;;4998821;28;20404;-87
2022/04/13 00:16:58;;;;;;;5.00;3.57;;;;;;;;;;4999968;28;21049;-87
2022/04/13 00:19:24;;;;;;;4.37;4.07;;;;;;;;;;5001832;28;20995;-87
2022/04/13 00:21:50;;;;;;;4.53;4.00;;;;;;;;;;5012535;28;20428;-88
2022/04/13 00:24:17;;;;;;;5.70;5.20;;;;;;;;;;4996091;28;20471;-87
2022/04/13 00:26:43;;;;;;;3.90;3.63;;;;;;;;;;4978417;28;20527;-87
2022/04/13 00:29:10;;;;;;;4.30;4.03;;;;;;;;;;5011519;28;20444;-87
2022/04/13 00:31:36;;;;;;;3.77;3.57;;;;;;;;;;5005257;28;20520;-88
2022/04/13 00:34:04;;;;;;;6.83;4.47;;;;;;;;;;4994829;28;20443;-88
2022/04/13 00:36:30;;;;;;;4.40;4.03;;;;;;;;;;4979939;28;20435;-87
2022/04/13 00:39:12;;;;;;;4.10;3.80;;;;;;;;;;5005830;28;20493;-88
2022/04/13 00:41:43;;;;;;;4.13;3.70;;;;;;;;;;5024023;28;20437;-88
2022/04/13 00:44:12;;;;;;;4.40;4.00;;;;;;;;;;5024462;28;20479;-89
2022/04/13 00:46:41;;;;;;;4.67;4.10;;;;;;;;;;5015967;28;20431;-88
2022/04/13 00:49:10;;;;;;;4.37;4.17;;;;;;;;;;5016186;28;20697;-88
2022/04/13 00:51:36;;;;;;;5.57;4.23;;;;;;;;;;5034508;28;20439;-88
2022/04/13 00:54:06;;;;;;;4.20;4.00;;;;;;;;;;5024961;28;20589;-88
2022/04/13 00:56:33;;;;;;;5.90;3.97;;;;;;;;;;5013087;28;20966;-87
2022/04/13 00:59:04;;;;;;;4.13;4.03;;;;;;;;;;5029743;28;20431;-88
2022/04/13 01:01:37;;;;;;;4.70;4.37;;;;;;;;;;5033712;28;20415;-87
2022/04/13 01:04:08;;;;;;;8.23;4.60;;;;;;;;;;5035071;28;20478;-86
2022/04/13 01:06:38;;;;;;;4.40;4.10;;;;;;;;;;5045957;28;20446;-87
2022/04/13 01:09:10;;;;;;;7.90;4.97;;;;;;;;;;5024456;28;20524;-87
2022/04/13 01:11:42;;;;;;;4.30;4.00;;;;;;;;;;5033724;28;20449;-88
2022/04/13 01:14:08;;;;;;;4.60;3.93;;;;;;;;;;5026285;28;20439;-87
2022/04/13 01:16:37;;;;;;;7.60;4.93;;;;;;;;;;5008433;23;20495;-89
2022/04/13 01:19:04;;;;;;;4.97;4.50;;;;;;;;;;4992169;28;21033;-90
2022/04/13 01:21:44;;;;;;;4.53;4.13;;;;;;;;;;5009667;28;20942;-89
2022/04/13 01:24:10;;;;;;;3.77;3.53;;;;;;;;;;4993592;28;20471;-90
2022/04/13 01:26:36;;;;;;;4.93;4.37;;;;;;;;;;5000996;28;20502;-90
2022/04/13 01:29:02;;;;;;;5.07;4.10;;;;;;;;;;4992957;28;20963;-89
2022/04/13 01:31:28;;;;;;;6.03;4.00;;;;;;;;;;5029322;28;20483;-88
2022/04/13 01:33:56;;;;;;;7.33;5.03;;;;;;;;;;5014111;28;20455;-88
2022/04/13 01:36:22;;;;;;;4.27;3.97;;;;;;;;;;5014655;28;20529;-90
2022/04/13 01:38:48;;;;;;;5.73;5.33;;;;;;;;;;5014917;28;20547;-89
2022/04/13 01:41:15;;;;;;;7.30;4.60;;;;;;;;;;5001212;28;20563;-92
2022/04/13 01:43:41;;;;;;;5.00;4.57;;;;;;;;;;4985109;28;20930;-90
2022/04/13 01:46:07;;;;;;;5.00;4.50;;;;;;;;;;5027457;28;20426;-90
2022/04/13 01:48:33;;;;;;;4.77;4.37;;;;;;;;;;5020432;28;20403;-91
2022/04/13 01:50:59;;;;;;;6.87;4.93;;;;;;;;;;4999136;28;20462;-89
2022/04/13 01:53:26;;;;;;;6.63;4.17;;;;;;;;;;5007835;28;20451;-90
2022/04/13 01:55:53;;;;;;;4.00;3.70;;;;;;;;;;4995802;28;20467;-90
2022/04/13 01:58:20;;;;;;;4.43;4.13;;;;;;;;;;4991723;28;20452;-90
2022/04/13 02:00:46;;;;;;;9.00;5.37;;;;;;;;;;4988860;28;20490;-91
2022/04/13 02:03:12;;;;;;;4.70;4.50;;;;;;;;;;4994465;28;20991;-90
2022/04/13 02:05:39;;;;;;;4.57;4.37;;;;;;;;;;4991283;28;20983;-90
2022/04/13 02:08:05;;;;;;;8.20;4.63;;;;;;;;;;4989632;28;20531;-90
2022/04/13 02:10:31;;;;;;;4.20;3.80;;;;;;;;;;4995461;28;20463;-90
2022/04/13 02:12:57;;;;;;;4.30;4.00;;;;;;;;;;4990496;28;20748;-90
2022/04/13 02:15:23;;;;;;;6.47;3.73;;;;;;;;;;5002242;28;20432;-90
2022/04/13 02:17:49;;;;;;;4.70;4.50;;;;;;;;;;4985784;28;20868;-89
2022/04/13 02:20:15;;;;;;;6.33;3.87;;;;;;;;;;5010149;28;20488;-90
2022/04/13 02:22:45;;;;;;;4.50;4.10;;;;;;;;;;4991306;28;20799;-88
2022/04/13 02:25:11;;;;;;;5.20;4.80;;;;;;;;;;5002673;28;20842;-90
2022/04/13 02:27:36;;;;;;;5.37;4.97;;;;;;;;;;5007782;28;20446;-90
2022/04/13 02:30:03;;;;;;;4.40;4.07;;;;;;;;;;5011256;28;20446;-89
2022/04/13 02:32:29;;;;;;;5.47;4.47;;;;;;;;;;4996436;28;20435;-89
2022/04/13 02:34:55;;;;;;;4.67;4.33;;;;;;;;;;5000040;28;20435;-89
2022/04/13 02:37:21;;;;;;;5.00;4.70;;;;;;;;;;4998890;28;20798;-89
2022/04/13 02:39:47;;;;;;;4.80;4.40;;;;;;;;;;5019591;28;20446;-89
2022/04/13 02:42:15;;;;;;;4.50;4.20;;;;;;;;;;4985067;28;20936;-90
2022/04/13 02:44:44;;;;;;;6.20;4.73;;;;;;;;;;5001139;28;20493;-89
2022/04/13 02:47:11;;;;;;;7.03;5.53;;;;;;;;;;4989944;28;20447;-90
2022/04/13 02:49:37;;;;;;;10.57;4.83;;;;;;;;;;4992268;28;20471;-90
2022/04/13 02:52:03;;;;;;;5.00;4.40;;;;;;;;;;4996949;28;20470;-89
2022/04/13 02:54:29;;;;;;;6.33;4.30;;;;;;;;;;5007978;28;20626;-89
2022/04/13 02:56:55;;;;;;;6.23;4.87;;;;;;;;;;5006707;28;20710;-89
2022/04/13 02:59:21;;;;;;;6.87;6.20;;;;;;;;;;4985673;28;20436;-90
2022/04/13 03:01:49;;;;;;;9.20;6.73;;;;;;;;;;5017445;28;20823;-90
2022/04/13 03:04:18;;;;;;;7.27;6.67;;;;;;;;;;4990063;28;20479;-89
2022/04/13 03:06:44;;;;;;;10.07;7.70;;;;;;;;;;4990579;28;20439;-89
2022/04/13 03:09:11;;;;;;;9.40;7.77;;;;;;;;;;4996362;28;20818;-88
2022/04/13 03:11:38;;;;;;;12.17;8.77;;;;;;;;;;5008618;28;21031;-90
2022/04/13 03:14:05;;;;;;;13.10;10.20;;;;;;;;;;5011094;28;20457;-90
2022/04/13 03:16:31;;;;;;;12.37;8.73;;;;;;;;;;5006389;28;20459;-90
2022/04/13 03:18:57;;;;;;;12.37;9.40;;;;;;;;;;4990958;28;21027;-90
2022/04/13 03:21:24;;;;;;;19.30;13.10;;;;;;;;;;4988779;28;20451;-90
2022/04/13 03:23:50;;;;;;;28.50;16.87;;;;;;;;;;4991732;28;20460;-89
2022/04/13 03:26:16;;;;;;;25.63;14.67;;;;;;;;;;4997641;28;20422;-90
2022/04/13 03:28:42;;;;;;;21.33;12.53;;;;;;;;;;5007679;28;20415;-90
2022/04/13 03:31:08;;;;;;;16.03;10.30;;;;;;;;;;4992725;28;20493;-91
2022/04/13 03:33:35;;;;;;;15.77;11.07;;;;;;;;;;5010849;28;20411;-89
2022/04/13 03:36:03;;;;;;;14.07;10.80;;;;;;;;;;4991969;28;20431;-90
2022/04/13 03:38:29;;;;;;;15.83;11.00;;;;;;;;;;5011855;28;20923;-89
2022/04/13 03:40:55;;;;;;;12.13;10.93;;;;;;;;;;4991505;28;20563;-90
2022/04/13 03:43:21;;;;;;;18.70;11.70;;;;;;;;;;5011713;28;20468;-90
2022/04/13 03:45:47;;;;;;;16.80;10.67;;;;;;;;;;5010322;28;20824;-88
2022/04/13 03:48:13;;;;;;;16.80;11.30;;;;;;;;;;5004911;28;21118;-90
2022/04/13 03:50:39;;;;;;;12.87;9.20;;;;;;;;;;5003777;28;20436;-91
2022/04/13 03:53:05;;;;;;;16.40;11.47;;;;;;;;;;4993518;28;20813;-90
2022/04/13 03:55:32;;;;;;;14.90;9.63;;;;;;;;;;4305179;28;10000768;-89
2022/04/13 03:57:58;;;;;;;10.60;8.37;;;;;;;;;;4995769;28;20518;-90
2022/04/13 04:00:26;;;;;;;17.33;10.90;;;;;;;;;;4995816;28;20895;-90
2022/04/13 04:02:52;;;;;;;8.33;5.57;;;;;;;;;;5001538;28;20463;-89
2022/04/13 04:05:18;;;;;;;9.13;6.80;;;;;;;;;;4994568;28;20511;-89
2022/04/13 04:07:44;;;;;;;9.83;6.80;;;;;;;;;;5010881;28;20443;-89
2022/04/13 04:10:11;;;;;;;9.83;6.10;;;;;;;;;;4999521;28;20882;-90
2022/04/13 04:12:37;;;;;;;8.67;7.10;;;;;;;;;;5018433;28;20433;-90
2022/04/13 04:15:03;;;;;;;8.73;7.80;;;;;;;;;;4995782;28;20450;-89
2022/04/13 04:17:29;;;;;;;11.33;8.60;;;;;;;;;;5001060;28;20546;-91
2022/04/13 04:19:55;;;;;;;11.17;8.43;;;;;;;;;;5010164;28;20736;-91
2022/04/13 04:22:24;;;;;;;8.53;7.50;;;;;;;;;;5010508;28;20436;-91
2022/04/13 04:24:51;;;;;;;4.60;4.50;;;;;;;;;;4992347;28;20552;-89
2022/04/13 04:27:17;;;;;;;6.20;5.80;;;;;;;;;;5018139;28;20545;-90
2022/04/13 04:29:43;;;;;;;6.70;5.73;;;;;;;;;;5001617;28;20442;-90
2022/04/13 04:32:09;;;;;;;6.10;5.60;;;;;;;;;;5011419;28;20822;-91
2022/04/13 04:34:35;;;;;;;6.07;5.47;;;;;;;;;;5003662;28;20444;-91
2022/04/13 04:37:01;;;;;;;5.33;4.93;;;;;;;;;;4993769;28;20427;-90
2022/04/13 04:39:28;;;;;;;7.30;5.40;;;;;;;;;;5003987;28;20436;-90
2022/04/13 04:41:54;;;;;;;7.87;7.27;;;;;;;;;;4994856;28;20435;-90
2022/04/13 04:44:20;;;;;;;7.13;6.23;;;;;;;;;;5011554;28;20517;-90
2022/04/13 04:46:46;;;;;;;10.23;7.10;;;;;;;;;;5018462;28;20427;-90
2022/04/13 04:49:12;;;;;;;5.70;5.30;;;;;;;;;;5012144;28;20427;-90
2022/04/13 04:51:38;;;;;;;5.90;5.37;;;;;;;;;;4997484;28;20471;-89
2022/04/13 04:54:05;;;;;;;6.50;5.90;;;;;;;;;;4997785;28;20442;-90
2022/04/13 04:56:31;;;;;;;10.03;6.40;;;;;;;;;;4997516;28;20481;-90
2022/04/13 04:58:57;;;;;;;6.90;6.30;;;;;;;;;;4988936;28;20882;-90
2022/04/13 05:01:23;;;;;;;8.00;6.40;;;;;;;;;;5007875;28;20549;-91
2022/04/13 05:03:52;;;;;;;10.93;6.57;;;;;;;;;;4994408;28;20434;-90
2022/04/13 05:06:22;;;;;;;5.93;5.53;;;;;;;;;;4992114;28;20494;-90
2022/04/13 05:08:49;;;;;;;10.70;6.47;;;;;;;;;;4998105;28;20505;-90
2022/04/13 05:11:15;;;;;;;5.83;5.30;;;;;;;;;;5017170;28;20423;-90
2022/04/13 05:13:41;;;;;;;8.47;6.20;;;;;;;;;;4993958;28;20466;-89
2022/04/13 05:16:07;;;;;;;6.23;5.70;;;;;;;;;;4998721;28;20439;-90
2022/04/13 05:18:33;;;;;;;8.77;6.20;;;;;;;;;;5012798;28;20589;-90
2022/04/13 05:21:00;;;;;;;5.83;5.30;;;;;;;;;;5015790;28;20728;-91
2022/04/13 05:23:26;;;;;;;8.97;5.60;;;;;;;;;;4993799;28;20467;-89
2022/04/13 05:25:52;;;;;;;5.40;5.07;;;;;;;;;;5010554;28;21067;-91
2022/04/13 05:28:18;;;;;;;5.27;4.80;;;;;;;;;;5014955;28;20435;-91
2022/04/13 05:30:44;;;;;;;5.33;4.80;;;;;;;;;;4991373;28;20886;-92
2022/04/13 05:33:10;;;;;;;5.20;4.70;;;;;;;;;;4996208;28;20523;-91
2022/04/13 05:35:36;;;;;;;13.30;5.20;;;;;;;;;;5002464;28;20455;-91
2022/04/13 05:38:02;;;;;;;4.93;4.60;;;;;;;;;;4996760;28;20421;-91
2022/04/13 05:40:29;;;;;;;8.27;5.00;;;;;;;;;;4997961;28;20503;-91
2022/04/13 05:42:55;;;;;;;7.30;4.40;;;;;;;;;;4996444;28;20432;-89
2022/04/13 05:45:21;;;;;;;5.90;5.40;;;;;;;;;;5016387;28;21185;-91
2022/04/13 05:47:47;;;;;;;8.07;4.53;;;;;;;;;;5021062;28;20819;-92
2022/04/13 05:50:14;;;;;;;4.93;4.60;;;;;;;;;;5001317;28;20475;-92
2022/04/13 05:52:41;;;;;;;5.93;5.30;;;;;;;;;;5003440;28;20820;-92
2022/04/13 05:55:07;;;;;;;7.70;5.30;;;;;;;;;;5010983;28;20529;-92
2022/04/13 05:57:33;;;;;;;11.13;6.73;;;;;;;;;;5014643;28;20432;-90
2022/04/13 05:59:59;;;;;;;10.17;6.00;;;;;;;;;;5009246;28;20475;-93
2022/04/13 06:02:25;;;;;;;7.50;6.20;;;;;;;;;;4989935;28;20462;-89
2022/04/13 06:04:51;;;;;;;8.43;5.03;;;;;;;;;;5020961;28;20479;-92
2022/04/13 06:07:18;;;;;;;10.70;5.57;;;;;;;;;;5040333;28;20435;-93
2022/04/13 06:09:44;;;;;;;9.57;6.07;;;;;;;;;;5000974;28;20466;-92
2022/04/13 06:12:11;;;;;;;5.80;5.20;;;;;;;;;;5004478;28;20717;-93
2022/04/13 06:14:37;;;;;;;9.90;6.53;;;;;;;;;;5002675;28;20423;-93
2022/04/13 06:17:04;;;;;;;9.60;6.70;;;;;;;;;;5013980;28;20461;-91
2022/04/13 06:19:30;;;;;;;9.70;6.00;;;;;;;;;;5026738;28;20469;-93
2022/04/13 06:21:56;;;;;;;6.17;5.70;;;;;;;;;;5004355;28;20440;-90
2022/04/13 06:24:22;;;;;;;7.27;6.13;;;;;;;;;;5020567;28;20475;-94
2022/04/13 06:26:48;;;;;;;5.97;5.20;;;;;;;;;;5015430;28;20431;-93
2022/04/13 06:29:14;;;;;;;6.50;5.90;;;;;;;;;;5034098;28;20423;-91
2022/04/13 06:31:40;;;;;;;6.93;6.23;;;;;;;;;;5029984;28;20420;-92
2022/04/13 06:34:06;;;;;;;6.40;5.77;;;;;;;;;;5016450;28;20463;-92
2022/04/13 06:36:33;;;;;;;8.17;5.80;;;;;;;;;;5030856;28;20450;-92
2022/04/13 06:38:59;;;;;;;5.70;5.30;;;;;;;;;;4655084;28;9999749;-92
2022/04/13 06:41:25;;;;;;;6.67;6.10;;;;;;;;;;5009274;28;20196;-92
2022/04/13 06:43:53;;;;;;;6.37;5.97;;;;;;;;;;5029608;28;20436;-93
2022/04/13 06:46:38;;;;;;;7.07;6.40;;;;;;;;;;4997230;28;20759;-90
2022/04/13 06:49:25;;;;;;;6.00;5.60;;;;;;;;;;5012979;28;20507;-94
2022/04/13 06:51:54;;;;;;;9.53;6.87;;;;;;;;;;4996255;28;20450;-93
2022/04/13 06:54:20;;;;;;;6.20;5.70;;;;;;;;;;5000743;28;20478;-94
2022/04/13 06:56:46;;;;;;;6.07;5.50;;;;;;;;;;5014194;28;20459;-95
2022/04/13 06:59:12;;;;;;;5.73;5.23;;;;;;;;;;5013220;28;20423;-86
2022/04/13 07:01:38;;;;;;;8.90;6.20;;;;;;;;;;5028094;28;20462;-93
2022/04/13 07:04:07;;;;;;;9.33;7.90;;;;;;;;;;5016330;28;20447;-89
2022/04/13 07:06:33;;;;;;;7.27;6.57;;;;;;;;;;5015626;23;20491;-79
2022/04/13 07:08:59;;;;;;;10.57;6.43;;;;;;;;;;5001636;28;20413;-80
2022/04/13 07:11:25;;;;;;;9.80;6.40;;;;;;;;;;4985510;28;20458;-79
2022/04/13 07:13:51;;;;;;;6.73;5.60;;;;;;;;;;4988473;28;20859;-80
2022/04/13 07:16:18;;;;;;;6.83;5.87;;;;;;;;;;4996605;28;20516;-81
2022/04/13 07:18:44;;;;;;;6.87;6.20;;;;;;;;;;4979709;28;20426;-79
2022/04/13 07:21:14;;;;;;;6.73;6.20;;;;;;;;;;4998430;28;20926;-80
2022/04/13 07:23:40;;;;;;;11.10;6.70;;;;;;;;;;4985668;28;20815;-79
2022/04/13 07:26:12;;;;;;;12.20;7.10;;;;;;;;;;4989051;28;20964;-79
2022/04/13 07:28:38;;;;;;;8.20;6.57;;;;;;;;;;4990528;28;20998;-78
2022/04/13 07:31:04;;;;;;;7.73;6.80;;;;;;;;;;4987858;28;20944;-80
2022/04/13 07:33:35;;;;;;;7.97;7.13;;;;;;;;;;4990180;28;20483;-80
2022/04/13 07:36:01;;;;;;;11.43;7.17;;;;;;;;;;4973506;28;20420;-78
2022/04/13 07:38:27;;;;;;;10.63;8.10;;;;;;;;;;4989860;28;20416;-78
2022/04/13 07:40:54;;;;;;;9.23;8.33;;;;;;;;;;4971843;28;20432;-78
2022/04/13 07:43:20;;;;;;;10.80;7.87;;;;;;;;;;4968899;28;20988;-78
2022/04/13 07:45:46;;;;;;;13.23;9.63;;;;;;;;;;4967355;28;20481;-79
2022/04/13 07:48:12;;;;;;;12.47;8.57;;;;;;;;;;4974047;28;20450;-79
2022/04/13 07:50:39;;;;;;;10.77;9.20;;;;;;;;;;4988696;28;20443;-79
2022/04/13 07:53:05;;;;;;;9.83;8.10;;;;;;;;;;4987905;28;20560;-79
2022/04/13 07:55:31;;;;;;;10.27;8.10;;;;;;;;;;4994417;28;20510;-79
2022/04/13 07:57:57;;;;;;;12.27;9.77;;;;;;;;;;4987544;28;21119;-79
2022/04/13 08:00:23;;;;;;;8.90;8.30;;;;;;;;;;4975306;28;20441;-79
2022/04/13 08:02:49;;;;;;;8.97;7.70;;;;;;;;;;4979633;28;20444;-79
2022/04/13 08:05:15;;;;;;;10.40;7.90;;;;;;;;;;4971390;28;21065;-79
2022/04/13 08:07:42;;;;;;;11.90;8.80;;;;;;;;;;4987372;28;20473;-79
2022/04/13 08:10:08;;;;;;;10.33;7.77;;;;;;;;;;4655773;28;9999932;-79
2022/04/13 08:12:35;;;;;;;8.90;7.97;;;;;;;;;;4989375;28;20237;-79
2022/04/13 08:15:03;;;;;;;9.60;8.70;;;;;;;;;;4986791;28;20488;-79
2022/04/13 08:17:29;;;;;;;10.77;8.20;;;;;;;;;;4992321;28;20440;-78
2022/04/13 08:19:55;;;;;;;9.83;8.90;;;;;;;;;;4984497;28;20439;-81
2022/04/13 08:22:25;;;;;;;10.20;8.30;;;;;;;;;;5003121;28;20424;-79
2022/04/13 08:24:51;;;;;;;12.63;9.10;;;;;;;;;;4983956;28;20451;-79
2022/04/13 08:27:18;;;;;;;8.00;7.23;;;;;;;;;;5004298;28;20443;-80
2022/04/13 08:29:46;;;;;;;9.03;8.13;;;;;;;;;;4998752;28;20784;-78
2022/04/13 08:32:12;;;;;;;9.40;8.60;;;;;;;;;;5003454;28;20482;-78
2022/04/13 08:34:39;;;;;;;8.30;7.60;;;;;;;;;;4981101;28;20487;-78
2022/04/13 08:37:05;;;;;;;9.03;7.80;;;;;;;;;;4996276;28;20518;-79
2022/04/13 08:39:31;;;;;;;8.77;8.00;;;;;;;;;;5001550;28;20481;-79
2022/04/13 08:41:58;;;;;;;8.53;7.80;;;;;;;;;;5001513;28;20427;-78
2022/04/13 08:44:43;;;;;;;7.27;6.77;;;;;;;;;;4977927;28;20434;-78
2022/04/13 08:47:12;;;;;;;10.03;8.80;;;;;;;;;;4987419;28;20892;-79
2022/04/13 08:49:44;;;;;;;9.93;7.97;;;;;;;;;;4985486;28;20427;-78
2022/04/13 08:52:11;;;;;;;8.23;7.40;;;;;;;;;;4510720;22;15218846;-79
2022/04/13 08:54:41;;;;;;;10.53;8.40;;;;;;;;;;5025012;28;20246;-79
2022/04/13 08:57:11;;;;;;;8.43;7.63;;;;;;;;;;5044700;28;20436;-78
2022/04/13 08:59:56;;;;;;;10.37;8.17;;;;;;;;;;5006920;28;20427;-79
2022/04/13 09:02:45;;;;;;;14.70;8.70;;;;;;;;;;5024204;28;20446;-79
2022/04/13 09:05:14;;;;;;;10.40;7.77;;;;;;;;;;5006743;28;20774;-79
2022/04/13 09:07:41;;;;;;;8.50;7.60;;;;;;;;;;5026547;28;20461;-78
2022/04/13 09:10:10;;;;;;;9.30;8.40;;;;;;;;;;5015230;28;20730;-79
2022/04/13 09:12:37;;;;;;;9.07;7.30;;;;;;;;;;5008705;28;20821;-79
2022/04/13 09:15:04;;;;;;;12.37;8.30;;;;;;;;;;5044532;28;20592;-77
2022/04/13 09:17:30;;;;;;;9.40;8.10;;;;;;;;;;5054063;28;20495;-78
2022/04/13 09:19:57;;;;;;;8.87;7.93;;;;;;;;;;5044461;28;20505;-78
2022/04/13 09:22:23;;;;;;;9.50;8.60;;;;;;;;;;5026487;28;20858;-78
2022/04/13 09:24:50;;;;;;;9.43;8.50;;;;;;;;;;5034406;28;20518;-79
2022/04/13 09:27:17;;;;;;;10.83;8.33;;;;;;;;;;5036562;28;20468;-79
2022/04/13 09:29:43;;;;;;;9.37;7.53;;;;;;;;;;5043138;28;20858;-78
2022/04/13 09:32:09;;;;;;;10.90;8.90;;;;;;;;;;5047018;28;20556;-77
2022/04/13 09:34:35;;;;;;;9.67;7.97;;;;;;;;;;5052636;28;20471;-79
2022/04/13 09:37:01;;;;;;;7.53;6.90;;;;;;;;;;5064251;28;20497;-79
2022/04/13 09:39:27;;;;;;;10.20;7.20;;;;;;;;;;5024873;28;20838;-79
2022/04/13 09:41:53;;;;;;;7.33;6.67;;;;;;;;;;5031807;28;20418;-79
2022/04/13 09:44:19;;;;;;;8.40;6.97;;;;;;;;;;5025862;28;20430;-78
2022/04/13 09:46:46;;;;;;;7.87;7.07;;;;;;;;;;5021038;28;20450;-77
2022/04/13 09:49:15;;;;;;;11.07;7.87;;;;;;;;;;5028845;28;20479;-78
2022/04/13 09:51:42;;;;;;;8.60;7.67;;;;;;;;;;5039122;28;20812;-78
2022/04/13 09:54:09;;;;;;;10.10;9.20;;;;;;;;;;5032758;28;20486;-78
2022/04/13 09:56:37;;;;;;;11.13;9.67;;;;;;;;;;5044780;28;20499;-78
2022/04/13 09:59:04;;;;;;;10.10;7.87;;;;;;;;;;5046945;28;20429;-77
2022/04/13 10:01:32;;;;;;;10.13;8.10;;;;;;;;;;5041466;28;20442;-80
2022/04/13 10:03:58;;;;;;;13.23;7.80;;;;;;;;;;5015739;28;20952;-79
2022/04/13 10:06:28;;;;;;;8.87;7.03;;;;;;;;;;5026425;28;20469;-79
2022/04/13 10:08:59;;;;;;;11.70;6.90;;;;;;;;;;5024748;28;20493;-78
2022/04/13 10:11:25;;;;;;;9.50;7.23;;;;;;;;;;5026714;28;20964;-78
2022/04/13 10:13:51;;;;;;;8.13;7.30;;;;;;;;;;5028742;28;20431;-79
2022/04/13 10:16:17;;;;;;;8.87;7.43;;;;;;;;;;5043262;28;20444;-79
2022/04/13 10:18:55;;;;;;;9.63;7.90;;;;;;;;;;5029230;28;20675;-80
2022/04/13 10:21:40;;;;;;;7.40;6.63;;;;;;;;;;5026448;28;20868;-79
2022/04/13 10:24:07;;;;;;;8.13;6.90;;;;;;;;;;5046177;28;20421;-79
2022/04/13 10:26:34;;;;;;;14.37;7.00;;;;;;;;;;5044477;28;20503;-80
2022/04/13 10:29:00;;;;;;;10.20;6.90;;;;;;;;;;5046004;28;20425;-80
2022/04/13 10:31:26;;;;;;;7.90;6.90;;;;;;;;;;5020648;28;20435;-79
2022/04/13 10:33:52;;;;;;;8.07;7.10;;;;;;;;;;5027921;28;20479;-79
2022/04/13 10:36:20;;;;;;;7.87;7.27;;;;;;;;;;5040029;28;20454;-79
2022/04/13 10:38:54;;;;;;;9.07;7.87;;;;;;;;;;5027419;28;20450;-78
2022/04/13 10:41:29;;;;;;;8.17;7.47;;;;;;;;;;5034662;28;20452;-81
2022/04/13 10:44:00;;;;;;;10.30;7.73;;;;;;;;;;4992918;28;20856;-80
2022/04/13 10:46:26;;;;;;;10.57;8.70;;;;;;;;;;5042478;28;20499;-79
2022/04/13 10:48:54;;;;;;;9.30;8.40;;;;;;;;;;5045762;28;20524;-82
2022/04/13 10:51:25;;;;;;;9.13;8.27;;;;;;;;;;5045535;28;20426;-81
2022/04/13 10:54:10;;;;;;;13.33;11.80;;;;;;;;;;5041061;28;20488;-78
2022/04/13 10:56:38;;;;;;;11.50;8.80;;;;;;;;;;5017239;28;20696;-78
2022/04/13 10:59:04;;;;;;;11.00;8.90;;;;;;;;;;5038554;28;20433;-80
2022/04/13 11:01:45;;;;;;;10.33;8.60;;;;;;;;;;5040848;28;20448;-79
2022/04/13 11:04:12;;;;;;;11.47;8.93;;;;;;;;;;5025863;28;20460;-78
2022/04/13 11:06:40;;;;;;;13.83;9.20;;;;;;;;;;5018721;28;20451;-78
2022/04/13 11:09:32;;;;;;;10.47;9.17;;;;;;;;;;5030256;28;20419;-80
2022/04/13 11:12:04;;;;;;;10.40;9.40;;;;;;;;;;5015959;28;20438;-80
2022/04/13 11:14:30;;;;;;;11.00;8.57;;;;;;;;;;5029997;28;20626;-80
2022/04/13 11:17:05;;;;;;;8.57;7.00;;;;;;;;;;5047783;28;20814;-78
2022/04/13 11:19:31;;;;;;;18.57;8.00;;;;;;;;;;4337274;28;10000758;-76
2022/04/13 11:21:57;;;;;;;14.97;9.50;;;;;;;;;;5026422;28;20196;-81
2022/04/13 11:24:36;;;;;;;11.57;8.00;;;;;;;;;;5012984;28;20521;-79
2022/04/13 11:27:02;;;;;;;11.00;7.83;;;;;;;;;;5031893;28;20514;-79
2022/04/13 11:29:35;;;;;;;7.87;7.10;;;;;;;;;;5038117;28;20441;-79
2022/04/13 11:32:01;;;;;;;10.20;6.70;;;;;;;;;;5037978;28;20786;-79
2022/04/13 11:34:46;;;;;;;6.00;5.60;;;;;;;;;;5033602;28;20957;-78
2022/04/13 11:37:19;;;;;;;8.10;7.17;;;;;;;;;;5017763;28;20441;-78
2022/04/13 11:39:46;;;;;;;8.70;7.90;;;;;;;;;;5025164;28;20438;-78
2022/04/13 11:42:27;;;;;;;12.50;7.30;;;;;;;;;;5037333;28;20660;-79
2022/04/13 11:45:00;;;;;;;11.90;6.47;;;;;;;;;;5027383;28;20490;-79
2022/04/13 11:47:36;;;;;;;6.20;5.70;;;;;;;;;;5012818;28;20422;-79
2022/04/13 11:50:03;;;;;;;10.53;6.47;;;;;;;;;;5026457;28;20429;-78
2022/04/13 11:52:48;;;;;;;7.83;7.13;;;;;;;;;;5042035;28;20510;-78
2022/04/13 11:55:16;;;;;;;8.47;5.97;;;;;;;;;;5041640;28;20520;-78
2022/04/13 11:58:02;;;;;;;7.27;5.80;;;;;;;;;;5044049;28;20418;-79
2022/04/13 12:00:57;;;;;;;6.03;5.20;;;;;;;;;;5024851;28;20847;-78
2022/04/13 12:03:23;;;;;;;6.50;6.00;;;;;;;;;;5031006;28;20434;-80
2022/04/13 12:05:51;;;;;;;7.40;5.50;;;;;;;;;;5027223;28;20472;-80
2022/04/13 12:08:43;;;;;;;7.63;6.53;;;;;;;;;;5046036;28;20517;-78
2022/04/13 12:11:11;;;;;;;10.93;6.40;;;;;;;;;;5044570;28;20436;-80
2022/04/13 12:13:57;;;;;;;5.93;5.33;;;;;;;;;;5027949;28;20437;-80
2022/04/13 12:16:24;;;;;;;6.67;5.07;;;;;;;;;;5048823;28;20441;-80
2022/04/13 12:18:50;;;;;;;8.10;4.40;;;;;;;;;;5046394;28;20429;-80
2022/04/13 12:21:17;;;;;;;4.67;4.37;;;;;;;;;;5048396;28;20414;-78
2022/04/13 12:23:44;;;;;;;6.53;4.83;;;;;;;;;;5024074;28;20466;-80
2022/04/13 12:26:10;;;;;;;5.73;4.80;;;;;;;;;;5040803;28;20479;-78
2022/04/13 12:28:37;;;;;;;4.90;4.50;;;;;;;;;;5046798;28;20521;-79
2022/04/13 12:31:07;;;;;;;4.90;4.43;;;;;;;;;;5047261;28;20397;-82
2022/04/13 12:33:34;;;;;;;5.20;4.40;;;;;;;;;;5024441;28;20422;-78
2022/04/13 12:36:01;;;;;;;5.27;4.77;;;;;;;;;;5040449;28;20518;-78
2022/04/13 12:38:42;;;;;;;4.87;4.40;;;;;;;;;;5028390;28;20520;-78
2022/04/13 12:41:10;;;;;;;4.93;4.47;;;;;;;;;;5035848;28;20476;-78
2022/04/13 12:43:37;;;;;;;4.83;4.40;;;;;;;;;;5042301;28;20446;-79
2022/04/13 12:46:17;;;;;;;5.03;4.00;;;;;;;;;;5042535;28;20475;-78
2022/04/13 12:48:45;;;;;;;4.57;4.17;;;;;;;;;;5048115;28;20447;-78
2022/04/13 12:51:11;;;;;;;4.67;4.27;;;;;;;;;;5040387;28;20422;-78
2022/04/13 12:54:06;;;;;;;4.17;3.83;;;;;;;;;;5056825;28;20458;-78
2022/04/13 12:56:34;;;;;;;13.23;5.17;;;;;;;;;;5026178;28;20789;-78
2022/04/13 12:59:00;;;;;;;5.50;5.10;;;;;;;;;;5045443;28;20448;-80
2022/04/13 13:01:27;;;;;;;7.60;4.67;;;;;;;;;;5027392;28;20563;-77
2022/04/13 13:03:54;;;;;;;4.50;4.20;;;;;;;;;;5045618;28;20448;-75
2022/04/13 13:06:20;;;;;;;6.20;4.50;;;;;;;;;;5046922;28;20425;-79
2022/04/13 13:09:05;;;;;;;7.07;6.03;;;;;;;;;;5038090;28;20584;-78
2022/04/13 13:11:33;;;;;;;5.90;5.40;;;;;;;;;;5013058;28;20465;-78
2022/04/13 13:14:13;;;;;;;8.33;5.60;;;;;;;;;;5022547;28;20474;-76
2022/04/13 13:16:42;;;;;;;8.73;5.63;;;;;;;;;;5039182;28;21015;-79
2022/04/13 13:19:08;;;;;;;6.77;6.00;;;;;;;;;;5046021;28;20460;-78
2022/04/13 13:21:34;;;;;;;7.10;6.17;;;;;;;;;;5047825;28;20533;-78
2022/04/13 13:24:00;;;;;;;7.93;6.27;;;;;;;;;;4686219;28;9999883;-78
2022/04/13 13:26:27;;;;;;;8.07;6.40;;;;;;;;;;5024457;28;20194;-76
2022/04/13 13:28:53;;;;;;;7.80;7.20;;;;;;;;;;5018484;28;21023;-78
2022/04/13 13:31:24;;;;;;;11.03;7.80;;;;;;;;;;5019723;28;21168;-83
2022/04/13 13:33:56;;;;;;;9.53;8.57;;;;;;;;;;5029933;23;20495;-90
2022/04/13 13:36:27;;;;;;;9.33;8.47;;;;;;;;;;4996291;28;20431;-92
2022/04/13 13:38:57;;;;;;;9.43;8.30;;;;;;;;;;4992363;28;20812;-92
2022/04/13 13:41:24;;;;;;;9.70;8.63;;;;;;;;;;4998159;28;20829;-93
2022/04/13 13:43:50;;;;;;;7.77;7.10;;;;;;;;;;4990249;28;20428;-92
2022/04/13 13:46:19;;;;;;;12.47;8.23;;;;;;;;;;4976788;28;20463;-89
2022/04/13 13:49:02;;;;;;;8.30;7.43;;;;;;;;;;5005310;28;20520;-90
2022/04/13 13:51:32;;;;;;;9.97;8.00;;;;;;;;;;4991687;28;21022;-90
2022/04/13 13:54:15;;;;;;;;;;;;;;;;;;;;;
2022/04/13 13:56:53;;;;;;;10.97;8.20;;;;;;;;;;5017254;28;20526;-91
2022/04/13 13:59:19;;;;;;;9.00;8.20;;;;;;;;;;5024352;28;20585;-88
2022/04/13 14:02:12;;;;;;;8.47;7.70;;;;;;;;;;5014604;28;20470;-90
2022/04/13 14:04:38;;;;;;;10.23;8.20;;;;;;;;;;5000274;28;20434;-92
2022/04/13 14:07:08;;;;;;;7.90;7.30;;;;;;;;;;5013416;28;20444;-91
2022/04/13 14:09:33;;;;;;;9.97;9.27;;;;;;;;;;4998021;28;20547;-89
2022/04/13 14:11:59;;;;;;;9.27;8.77;;;;;;;;;;5014630;28;20819;-92
2022/04/13 14:14:25;;;;;;;9.47;8.53;;;;;;;;;;4991941;28;20602;-91
2022/04/13 14:16:53;;;;;;;9.63;9.03;;;;;;;;;;5012856;28;20467;-91
2022/04/13 14:19:33;;;;;;;11.43;10.43;;;;;;;;;;5018814;28;20534;-92
2022/04/13 14:21:59;;;;;;;11.50;10.70;;;;;;;;;;5016972;28;20443;-91
2022/04/13 14:24:25;;;;;;;11.23;10.33;;;;;;;;;;4999170;28;20454;-88
2022/04/13 14:26:51;;;;;;;10.87;10.13;;;;;;;;;;5014043;28;20493;-91
2022/04/13 14:29:18;;;;;;;12.40;11.40;;;;;;;;;;5014965;28;20876;-91
2022/04/13 14:31:48;;;;;;;15.17;13.97;;;;;;;;;;4986291;28;20460;-94
2022/04/13 14:34:14;;;;;;;14.17;12.70;;;;;;;;;;5019412;28;20494;-92
2022/04/13 14:36:41;;;;;;;12.97;12.00;;;;;;;;;;5020746;28;20461;-90
2022/04/13 14:39:10;;;;;;;14.73;13.50;;;;;;;;;;4999910;28;20419;-92
2022/04/13 14:41:37;;;;;;;15.23;13.57;;;;;;;;;;5010070;28;20530;-90
2022/04/13 14:44:03;;;;;;;15.40;14.00;;;;;;;;;;4995764;28;20430;-92
2022/04/13 14:46:31;;;;;;;15.03;13.50;;;;;;;;;;5012942;28;20492;-92